createdAt,value
2018-07-15T00:01:38.614Z,60311.51
2018-07-15T00:04:06.778Z,60334.88
2018-07-15T00:06:34.951Z,60331.84
2018-07-15T00:09:03.476Z,60326.75
2018-07-15T00:11:31.642Z,60353.18
2018-07-15T00:13:59.814Z,60328.79
2018-07-15T00:16:27.991Z,60358.25
2018-07-15T00:18:56.175Z,60353.18
2018-07-15T00:21:24.378Z,60348.09
2018-07-15T00:23:52.550Z,60333.87
2018-07-15T00:26:20.730Z,60339.96
2018-07-15T00:28:48.930Z,60333.87
2018-07-15T00:31:17.106Z,60343.01
2018-07-15T00:33:45.283Z,60326.75
2018-07-15T00:36:13.450Z,60338.95
2018-07-15T00:38:41.610Z,60349.11
2018-07-15T00:41:09.791Z,60351.14
2018-07-15T00:43:38.269Z,60339.96
2018-07-15T00:46:06.595Z,60350.12
2018-07-15T00:48:34.749Z,60346.06
2018-07-15T00:51:02.923Z,60352.16
2018-07-15T00:53:31.103Z,60343.01
2018-07-15T00:55:59.299Z,60332.85
2018-07-15T00:58:27.479Z,60345.04
2018-07-15T01:01:02.123Z,60356.22
2018-07-15T01:03:31.139Z,60351.14
2018-07-15T01:05:59.411Z,60369.43
2018-07-15T01:08:27.627Z,60344.03
2018-07-15T01:10:55.827Z,60356.22
2018-07-15T01:13:24.163Z,60354.19
2018-07-15T01:15:52.438Z,60369.43
2018-07-15T01:18:20.706Z,60339.96
2018-07-15T01:20:48.898Z,60364.35
2018-07-15T01:23:17.086Z,60349.11
2018-07-15T01:25:45.291Z,60374.52
2018-07-15T01:28:13.462Z,60353.18
2018-07-15T01:30:41.649Z,60348.09
2018-07-15T01:33:09.855Z,60360.29
2018-07-15T01:35:38.058Z,60363.34
2018-07-15T01:38:06.338Z,60380.61
2018-07-15T01:40:34.516Z,60374.52
2018-07-15T01:43:02.711Z,60351.14
2018-07-15T01:45:30.883Z,60329.80
2018-07-15T01:47:59.065Z,60369.43
2018-07-15T01:50:27.258Z,60342.00
2018-07-15T01:52:55.446Z,60361.30
2018-07-15T01:55:23.646Z,60361.30
2018-07-15T01:57:51.830Z,60352.16
2018-07-15T02:00:20.023Z,60380.61
2018-07-15T02:02:48.195Z,60356.22
2018-07-15T02:05:16.386Z,60350.12
2018-07-15T02:07:44.554Z,60384.68
2018-07-15T02:10:12.728Z,60355.21
2018-07-15T02:12:40.898Z,60343.01
2018-07-15T02:15:09.085Z,60371.46
2018-07-15T02:17:37.278Z,60362.32
2018-07-15T02:20:05.458Z,60356.22
2018-07-15T02:22:33.665Z,60378.58
2018-07-15T02:25:01.835Z,60363.34
2018-07-15T02:27:30.031Z,60361.30
2018-07-15T02:29:58.211Z,60397.89
2018-07-15T02:32:26.400Z,60361.30
2018-07-15T02:34:54.585Z,60367.40
2018-07-15T02:37:22.811Z,60346.06
2018-07-15T02:39:50.983Z,60382.64
2018-07-15T02:42:19.201Z,60381.63
2018-07-15T02:44:47.511Z,60362.32
2018-07-15T02:47:15.667Z,60372.48
2018-07-15T02:49:43.860Z,60355.21
2018-07-15T02:52:12.031Z,60368.42
2018-07-15T02:54:40.377Z,60359.27
2018-07-15T02:57:08.559Z,60383.66
2018-07-15T02:59:36.778Z,60354.19
2018-07-15T03:02:04.979Z,60362.32
2018-07-15T03:04:33.150Z,60393.82
2018-07-15T03:07:01.331Z,60358.25
2018-07-15T03:09:29.506Z,60364.35
2018-07-15T03:11:57.677Z,60382.64
2018-07-15T03:14:25.847Z,60391.79
2018-07-15T03:16:54.044Z,60364.35
2018-07-15T03:19:22.219Z,60381.63
2018-07-15T03:21:50.402Z,60398.90
2018-07-15T03:24:18.561Z,60372.48
2018-07-15T03:26:46.744Z,60374.52
2018-07-15T03:29:14.907Z,60412.11
2018-07-15T03:31:43.082Z,60389.76
2018-07-15T03:34:11.356Z,60375.53
2018-07-15T03:36:39.438Z,60381.63
2018-07-15T03:39:08.160Z,60375.53
2018-07-15T03:41:36.354Z,60388.74
2018-07-15T03:44:04.716Z,60369.43
2018-07-15T03:46:32.874Z,60382.64
2018-07-15T03:49:01.078Z,60384.68
2018-07-15T03:51:29.251Z,60373.50
2018-07-15T03:53:57.435Z,60366.39
2018-07-15T03:56:25.611Z,60381.63
2018-07-15T03:58:53.869Z,60376.55
2018-07-15T04:01:22.054Z,60406.02
2018-07-15T04:03:50.231Z,60378.58
2018-07-15T04:06:18.398Z,60409.07
2018-07-15T04:08:46.702Z,60383.66
2018-07-15T04:11:14.740Z,60381.63
2018-07-15T04:13:42.905Z,60389.76
2018-07-15T04:16:11.078Z,60379.59
2018-07-15T04:18:39.250Z,60402.97
2018-07-15T04:21:07.418Z,60407.03
2018-07-15T04:23:35.602Z,60385.69
2018-07-15T04:26:03.775Z,60386.71
2018-07-15T04:28:31.951Z,60378.58
2018-07-15T04:31:00.138Z,60392.80
2018-07-15T04:33:28.299Z,60393.82
2018-07-15T04:35:56.475Z,60394.84
2018-07-15T04:38:24.655Z,60394.84
2018-07-15T04:40:52.991Z,60377.56
2018-07-15T04:43:21.168Z,60382.64
2018-07-15T04:45:49.343Z,60396.87
2018-07-15T04:48:17.531Z,60377.56
2018-07-15T04:50:45.694Z,60380.61
2018-07-15T04:53:13.866Z,60400.93
2018-07-15T04:55:42.044Z,60387.72
2018-07-15T04:58:10.246Z,60393.82
2018-07-15T05:00:38.482Z,60414.14
2018-07-15T05:03:06.663Z,60380.61
2018-07-15T05:05:34.867Z,60392.80
2018-07-15T05:08:03.114Z,60374.52
2018-07-15T05:10:31.306Z,60396.87
2018-07-15T05:12:59.513Z,60393.82
2018-07-15T05:15:27.691Z,60401.95
2018-07-15T05:17:55.862Z,60394.84
2018-07-15T05:20:24.043Z,60378.58
2018-07-15T05:22:52.239Z,60365.37
2018-07-15T05:25:20.472Z,60391.79
2018-07-15T05:27:48.652Z,60379.59
2018-07-15T05:30:16.831Z,60383.66
2018-07-15T05:32:45.011Z,60372.48
2018-07-15T05:35:13.295Z,60383.66
2018-07-15T05:37:41.471Z,60392.80
2018-07-15T05:40:09.671Z,60371.46
2018-07-15T05:42:37.854Z,60380.61
2018-07-15T05:45:06.031Z,60384.68
2018-07-15T05:47:34.249Z,60383.66
2018-07-15T05:50:02.535Z,60371.46
2018-07-15T05:52:30.701Z,60369.43
2018-07-15T05:54:58.975Z,60376.55
2018-07-15T05:57:27.143Z,60373.50
2018-07-15T05:59:55.322Z,60354.19
2018-07-15T06:02:23.504Z,60352.16
2018-07-15T06:04:51.671Z,60369.43
2018-07-15T06:07:19.969Z,60391.79
2018-07-15T06:09:48.146Z,60383.66
2018-07-15T06:12:16.337Z,60354.19
2018-07-15T06:14:44.522Z,60379.59
2018-07-15T06:17:12.927Z,60387.72
2018-07-15T06:19:41.006Z,60369.43
2018-07-15T06:22:09.158Z,60382.64
2018-07-15T06:24:37.328Z,60367.40
2018-07-15T06:27:05.546Z,60348.09
2018-07-15T06:29:33.707Z,60377.56
2018-07-15T06:32:01.877Z,60336.91
2018-07-15T06:34:30.043Z,60369.43
2018-07-15T06:36:58.218Z,60352.16
2018-07-15T06:39:26.380Z,60363.34
2018-07-15T06:41:54.555Z,60354.19
2018-07-15T06:44:22.708Z,60354.19
2018-07-15T06:46:50.866Z,60364.35
2018-07-15T06:49:19.116Z,60364.35
2018-07-15T06:51:47.205Z,60337.93
2018-07-15T06:54:15.390Z,60377.56
2018-07-15T06:56:43.603Z,60349.11
2018-07-15T06:59:11.767Z,60362.32
2018-07-15T07:01:40.006Z,60372.48
2018-07-15T07:04:08.114Z,60370.45
2018-07-15T07:06:36.283Z,60365.37
2018-07-15T07:09:05.535Z,60356.22
2018-07-15T07:11:34.006Z,60357.24
2018-07-15T07:14:02.202Z,60355.21
2018-07-15T07:16:30.358Z,60344.03
2018-07-15T07:18:58.532Z,60348.09
2018-07-15T07:21:26.728Z,60347.08
2018-07-15T07:23:54.902Z,60334.88
2018-07-15T07:26:23.062Z,60349.11
2018-07-15T07:28:51.288Z,60345.04
2018-07-15T07:31:19.415Z,60317.61
2018-07-15T07:33:47.690Z,60329.80
2018-07-15T07:36:15.866Z,60328.79
2018-07-15T07:38:44.254Z,60321.67
2018-07-15T07:41:12.431Z,60337.93
2018-07-15T07:43:40.590Z,60314.56
2018-07-15T07:46:08.770Z,60325.74
2018-07-15T07:48:36.940Z,60326.75
2018-07-15T07:51:05.155Z,60333.87
2018-07-15T07:53:33.331Z,60317.61
2018-07-15T07:56:01.496Z,60312.53
2018-07-15T07:58:29.702Z,60339.96
2018-07-15T08:00:57.896Z,60309.48
2018-07-15T08:03:26.074Z,60316.59
2018-07-15T08:05:54.241Z,60318.62
2018-07-15T08:08:22.422Z,60298.30
2018-07-15T08:10:50.591Z,60297.29
2018-07-15T08:13:18.795Z,60316.59
2018-07-15T08:15:47.183Z,60319.64
2018-07-15T08:18:15.406Z,60290.17
2018-07-15T08:20:43.926Z,60290.17
2018-07-15T08:23:12.103Z,60292.21
2018-07-15T08:25:40.466Z,60301.35
2018-07-15T08:28:08.751Z,60301.35
2018-07-15T08:30:48.103Z,60289.16
2018-07-15T08:33:16.292Z,60295.25
2018-07-15T08:35:44.507Z,60308.46
2018-07-15T08:38:12.683Z,60290.17
2018-07-15T08:40:40.926Z,60273.91
2018-07-15T08:43:09.142Z,60282.04
2018-07-15T08:45:37.405Z,60284.07
2018-07-15T08:48:05.892Z,60278.99
2018-07-15T08:50:34.067Z,60261.72
2018-07-15T08:53:02.335Z,60270.87
2018-07-15T08:55:30.563Z,60295.25
2018-07-15T08:57:58.846Z,60291.19
2018-07-15T09:00:27.122Z,60269.85
2018-07-15T09:02:55.363Z,60259.69
2018-07-15T09:05:23.647Z,60269.85
2018-07-15T09:07:52.035Z,60280.01
2018-07-15T09:10:20.251Z,60270.87
2018-07-15T09:12:48.487Z,60256.64
2018-07-15T09:15:16.690Z,60252.57
2018-07-15T09:17:44.899Z,60269.85
2018-07-15T09:20:13.159Z,60262.74
2018-07-15T09:22:41.385Z,60244.45
2018-07-15T09:25:09.592Z,60261.72
2018-07-15T09:27:37.812Z,60255.63
2018-07-15T09:30:06.067Z,60252.57
2018-07-15T09:32:34.335Z,60251.56
2018-07-15T09:35:02.600Z,60240.38
2018-07-15T09:37:30.852Z,60248.51
2018-07-15T09:39:59.115Z,60255.63
2018-07-15T09:42:27.387Z,60229.20
2018-07-15T09:44:55.587Z,60231.24
2018-07-15T09:47:23.915Z,60234.29
2018-07-15T09:49:52.194Z,60219.04
2018-07-15T09:52:20.530Z,60218.03
2018-07-15T09:54:49.037Z,60222.09
2018-07-15T09:57:17.262Z,60190.59
2018-07-15T09:59:45.523Z,60204.82
2018-07-15T10:02:13.751Z,60199.74
2018-07-15T10:04:42.037Z,60178.40
2018-07-15T10:07:10.262Z,60176.37
2018-07-15T10:09:38.671Z,60180.43
2018-07-15T10:12:06.948Z,60188.56
2018-07-15T10:14:35.671Z,60196.69
2018-07-15T10:17:03.866Z,60164.17
2018-07-15T10:19:32.088Z,60169.25
2018-07-15T10:22:00.473Z,60171.29
2018-07-15T10:24:28.626Z,60190.59
2018-07-15T10:26:56.839Z,60173.32
2018-07-15T10:29:25.092Z,60167.22
2018-07-15T10:31:53.428Z,60166.20
2018-07-15T10:34:21.611Z,60147.91
2018-07-15T10:36:49.790Z,60169.25
2018-07-15T10:39:17.975Z,60164.17
2018-07-15T10:41:46.171Z,60164.17
2018-07-15T10:44:14.369Z,60143.85
2018-07-15T10:46:42.551Z,60158.07
2018-07-15T10:49:10.791Z,60139.79
2018-07-15T10:51:39.140Z,60140.80
2018-07-15T10:54:07.623Z,60146.90
2018-07-15T10:56:35.842Z,60144.87
2018-07-15T10:59:04.050Z,60132.67
2018-07-15T11:01:32.294Z,60133.69
2018-07-15T11:04:00.466Z,60128.61
2018-07-15T11:06:28.748Z,60122.51
2018-07-15T11:08:56.966Z,60115.40
2018-07-15T11:11:25.278Z,60113.37
2018-07-15T11:13:53.618Z,60108.29
2018-07-15T11:16:21.833Z,60107.27
2018-07-15T11:18:50.045Z,60099.14
2018-07-15T11:21:18.249Z,60131.66
2018-07-15T11:23:46.422Z,60115.40
2018-07-15T11:26:14.762Z,60130.64
2018-07-15T11:28:42.870Z,60138.77
2018-07-15T11:31:11.332Z,60117.43
2018-07-15T11:33:39.436Z,60113.37
2018-07-15T11:36:07.815Z,60121.50
2018-07-15T11:38:36.006Z,60119.46
2018-07-15T11:41:04.417Z,60104.22
2018-07-15T11:43:32.659Z,60116.41
2018-07-15T11:46:01.242Z,60111.33
2018-07-15T11:48:29.811Z,60116.41
2018-07-15T11:50:58.025Z,60114.38
2018-07-15T11:53:26.267Z,60107.27
2018-07-15T11:55:54.500Z,60112.35
2018-07-15T11:58:22.759Z,60100.16
2018-07-15T12:00:51.007Z,60097.11
2018-07-15T12:03:19.607Z,60093.04
2018-07-15T12:05:48.041Z,60095.08
2018-07-15T12:08:16.469Z,60095.08
2018-07-15T12:10:45.128Z,60101.17
2018-07-15T12:13:13.589Z,60103.20
2018-07-15T12:15:41.991Z,60100.16
2018-07-15T12:18:10.579Z,60098.12
2018-07-15T12:20:39.089Z,60101.17
2018-07-15T12:23:07.531Z,60104.22
2018-07-15T12:25:36.042Z,60118.45
2018-07-15T12:28:05.048Z,60113.37
2018-07-15T12:30:34.211Z,60105.24
2018-07-15T12:33:02.644Z,60085.93
2018-07-15T12:35:31.123Z,60114.38
2018-07-15T12:37:59.381Z,60105.24
2018-07-15T12:40:27.872Z,60122.51
2018-07-15T12:42:56.215Z,60123.53
2018-07-15T12:45:24.798Z,60109.30
2018-07-15T12:47:53.227Z,60115.40
2018-07-15T12:50:21.684Z,60125.56
2018-07-15T12:52:50.873Z,60133.69
2018-07-15T12:55:19.319Z,60135.72
2018-07-15T12:57:47.596Z,60141.82
2018-07-15T13:00:15.986Z,60112.35
2018-07-15T13:02:44.536Z,60131.66
2018-07-15T13:05:13.150Z,60124.54
2018-07-15T13:07:41.657Z,60123.53
2018-07-15T13:10:09.914Z,60117.43
2018-07-15T13:12:38.411Z,60126.57
2018-07-15T13:15:06.788Z,60139.79
2018-07-15T13:17:35.336Z,60123.53
2018-07-15T13:20:04.497Z,60140.80
2018-07-15T13:22:33.247Z,60126.57
2018-07-15T13:25:01.798Z,60130.64
2018-07-15T13:27:30.223Z,60144.87
2018-07-15T13:29:58.591Z,60127.59
2018-07-15T13:32:26.955Z,60123.53
2018-07-15T13:34:55.418Z,60131.66
2018-07-15T13:37:23.885Z,60121.50
2018-07-15T13:39:52.289Z,60126.57
2018-07-15T13:42:20.747Z,60135.72
2018-07-15T13:44:48.976Z,60135.72
2018-07-15T13:47:17.563Z,60124.54
2018-07-15T13:49:45.782Z,60133.69
2018-07-15T13:52:14.110Z,60132.67
2018-07-15T13:54:42.275Z,60139.79
2018-07-15T13:57:10.440Z,60126.57
2018-07-15T13:59:38.608Z,60127.59
2018-07-15T14:02:06.790Z,60122.51
2018-07-15T14:04:35.058Z,60134.70
2018-07-15T14:07:03.490Z,60136.73
2018-07-15T14:09:31.713Z,60141.82
2018-07-15T14:11:59.983Z,60160.11
2018-07-15T14:14:28.290Z,60139.79
2018-07-15T14:16:56.479Z,60145.88
2018-07-15T14:19:24.751Z,60154.01
2018-07-15T14:21:52.934Z,60132.67
2018-07-15T14:24:21.102Z,60143.85
2018-07-15T14:26:49.292Z,60138.77
2018-07-15T14:29:17.470Z,60134.70
2018-07-15T14:31:45.643Z,60143.85
2018-07-15T14:34:13.803Z,60125.56
2018-07-15T14:36:41.974Z,60142.83
2018-07-15T14:39:10.126Z,60138.77
2018-07-15T14:41:38.306Z,60132.67
2018-07-15T14:44:06.759Z,60140.80
2018-07-15T14:46:34.987Z,60130.64
2018-07-15T14:49:03.423Z,60148.93
2018-07-15T14:51:31.586Z,60151.98
2018-07-15T14:53:59.749Z,60129.63
2018-07-15T14:56:28.115Z,60143.85
2018-07-15T14:58:56.292Z,60156.04
2018-07-15T15:01:24.642Z,60151.98
2018-07-15T15:03:52.818Z,60141.82
2018-07-15T15:06:20.995Z,60143.85
2018-07-15T15:08:49.195Z,60142.83
2018-07-15T15:11:17.381Z,60153.00
2018-07-15T15:13:45.586Z,60157.06
2018-07-15T15:16:13.758Z,60165.19
2018-07-15T15:18:41.967Z,60148.93
2018-07-15T15:21:10.151Z,60153.00
2018-07-15T15:23:38.335Z,60179.41
2018-07-15T15:26:06.562Z,60155.03
2018-07-15T15:28:34.738Z,60155.03
2018-07-15T15:31:02.906Z,60161.12
2018-07-15T15:33:31.131Z,60153.00
2018-07-15T15:35:59.247Z,60148.93
2018-07-15T15:38:27.413Z,60148.93
2018-07-15T15:40:55.589Z,60160.11
2018-07-15T15:43:23.764Z,60154.01
2018-07-15T15:45:51.946Z,60158.07
2018-07-15T15:48:20.106Z,60149.95
2018-07-15T15:50:48.279Z,60158.07
2018-07-15T15:53:16.471Z,60157.06
2018-07-15T15:55:44.675Z,60162.14
2018-07-15T15:58:12.947Z,60156.04
2018-07-15T16:00:41.063Z,60157.06
2018-07-15T16:03:09.238Z,60151.98
2018-07-15T16:05:37.533Z,60167.22
2018-07-15T16:08:06.593Z,60173.32
2018-07-15T16:10:34.787Z,60141.82
2018-07-15T16:13:02.992Z,60133.69
2018-07-15T16:15:31.155Z,60175.35
2018-07-15T16:17:59.322Z,60156.04
2018-07-15T16:20:27.499Z,60158.07
2018-07-15T16:22:55.659Z,60178.40
2018-07-15T16:25:23.833Z,60161.12
2018-07-15T16:27:52.042Z,60149.95
2018-07-15T16:30:20.327Z,60145.88
2018-07-15T16:32:48.498Z,60146.90
2018-07-15T16:35:16.678Z,60170.27
2018-07-15T16:37:44.851Z,60149.95
2018-07-15T16:40:13.067Z,60136.73
2018-07-15T16:42:41.217Z,60148.93
2018-07-15T16:45:09.667Z,60159.09
2018-07-15T16:47:37.847Z,60169.25
2018-07-15T16:50:06.176Z,60127.59
2018-07-15T16:52:34.339Z,60156.04
2018-07-15T16:55:02.517Z,60176.37
2018-07-15T16:57:30.687Z,60160.11
2018-07-15T16:59:59.146Z,60169.25
2018-07-15T17:02:27.310Z,60170.27
2018-07-15T17:04:57.586Z,60173.32
2018-07-15T17:07:26.028Z,60148.93
2018-07-15T17:09:54.246Z,60167.22
2018-07-15T17:12:22.588Z,60171.29
2018-07-15T17:14:50.816Z,60165.19
2018-07-15T17:17:19.023Z,60154.01
2018-07-15T17:19:47.326Z,60169.25
2018-07-15T17:22:15.622Z,60162.14
2018-07-15T17:24:43.935Z,60161.12
2018-07-15T17:27:12.169Z,60176.37
2018-07-15T17:29:40.602Z,60148.93
2018-07-15T17:32:08.795Z,60169.25
2018-07-15T17:34:37.206Z,60187.54
2018-07-15T17:37:05.558Z,60172.30
2018-07-15T17:39:33.742Z,60190.59
2018-07-15T17:42:02.045Z,60163.16
2018-07-15T17:44:30.215Z,60171.29
2018-07-15T17:46:58.418Z,60184.49
2018-07-15T17:49:26.599Z,60179.41
2018-07-15T17:51:54.767Z,60177.38
2018-07-15T17:54:22.935Z,60177.38
2018-07-15T17:56:51.154Z,60172.30
2018-07-15T17:59:19.328Z,60181.45
2018-07-15T18:01:47.512Z,60188.56
2018-07-15T18:04:15.715Z,60180.43
2018-07-15T18:06:43.874Z,60187.54
2018-07-15T18:09:12.047Z,60196.69
2018-07-15T18:11:40.222Z,60186.52
2018-07-15T18:14:08.966Z,60186.52
2018-07-15T18:16:37.142Z,60173.32
2018-07-15T18:19:05.310Z,60178.40
2018-07-15T18:21:33.487Z,60202.79
2018-07-15T18:24:01.651Z,60183.48
2018-07-15T18:26:29.914Z,60173.32
2018-07-15T18:28:58.283Z,60181.45
2018-07-15T18:31:26.539Z,60175.35
2018-07-15T18:33:54.742Z,60180.43
2018-07-15T18:36:22.915Z,60188.56
2018-07-15T18:38:51.086Z,60184.49
2018-07-15T18:41:19.292Z,60182.46
2018-07-15T18:43:47.650Z,60189.57
2018-07-15T18:46:15.887Z,60171.29
2018-07-15T18:48:44.094Z,60199.74
2018-07-15T18:51:12.455Z,60201.77
2018-07-15T18:53:40.815Z,60185.51
2018-07-15T18:56:08.935Z,60189.57
2018-07-15T18:58:37.135Z,60210.91
2018-07-15T19:01:05.326Z,60211.93
2018-07-15T19:03:33.707Z,60195.67
2018-07-15T19:06:01.971Z,60207.86
2018-07-15T19:08:30.163Z,60210.91
2018-07-15T19:10:58.498Z,60204.82
2018-07-15T19:13:26.749Z,60227.17
2018-07-15T19:15:55.583Z,60222.09
2018-07-15T19:18:23.917Z,60215.99
2018-07-15T19:20:52.047Z,60224.12
2018-07-15T19:23:20.273Z,60225.14
2018-07-15T19:25:48.522Z,60221.07
2018-07-15T19:28:16.787Z,60228.19
2018-07-15T19:30:45.015Z,60219.04
2018-07-15T19:33:13.256Z,60229.20
2018-07-15T19:35:41.498Z,60246.48
2018-07-15T19:38:09.655Z,60237.33
2018-07-15T19:40:37.823Z,60225.14
2018-07-15T19:43:06.027Z,60236.32
2018-07-15T19:45:34.199Z,60236.32
2018-07-15T19:48:02.383Z,60239.36
2018-07-15T19:50:30.550Z,60241.40
2018-07-15T19:52:58.738Z,60226.16
2018-07-15T19:55:26.952Z,60243.43
2018-07-15T19:57:55.170Z,60257.66
2018-07-15T20:00:23.328Z,60214.98
2018-07-15T20:02:51.492Z,60259.69
2018-07-15T20:05:19.654Z,60245.46
2018-07-15T20:07:47.818Z,60257.66
2018-07-15T20:10:15.991Z,60224.12
2018-07-15T20:12:44.158Z,60257.66
2018-07-15T20:15:12.380Z,60259.69
2018-07-15T20:17:40.554Z,60256.64
2018-07-15T20:20:09.831Z,60251.56
2018-07-15T20:22:38.027Z,60253.59
2018-07-15T20:25:06.527Z,60269.85
2018-07-15T20:27:34.751Z,60250.54
2018-07-15T20:30:02.907Z,60243.43
2018-07-15T20:32:31.211Z,60255.63
2018-07-15T20:34:59.383Z,60252.57
2018-07-15T20:37:28.042Z,60262.74
2018-07-15T20:39:56.265Z,60260.71
2018-07-15T20:42:24.368Z,60256.64
2018-07-15T20:44:52.535Z,60259.69
2018-07-15T20:47:20.707Z,60264.77
2018-07-15T20:49:48.868Z,60271.88
2018-07-15T20:52:17.030Z,60273.91
2018-07-15T20:54:45.219Z,60268.83
2018-07-15T20:57:13.379Z,60270.87
2018-07-15T20:59:41.549Z,60266.80
2018-07-15T21:02:09.858Z,60269.85
2018-07-15T21:04:38.084Z,60268.83
2018-07-15T21:07:06.235Z,60271.88
2018-07-15T21:09:34.401Z,60275.95
2018-07-15T21:12:02.575Z,60282.04
2018-07-15T21:14:30.751Z,60283.06
2018-07-15T21:16:59.067Z,60283.06
2018-07-15T21:19:27.223Z,60263.75
2018-07-15T21:21:55.398Z,60280.01
2018-07-15T21:24:23.563Z,60285.09
2018-07-15T21:26:51.742Z,60267.82
2018-07-15T21:29:19.987Z,60287.12
2018-07-15T21:31:48.167Z,60286.11
2018-07-15T21:34:16.328Z,60273.91
2018-07-15T21:36:44.483Z,60290.17
2018-07-15T21:39:12.643Z,60293.22
2018-07-15T21:41:40.847Z,60294.24
2018-07-15T21:44:09.055Z,60284.07
2018-07-15T21:46:37.158Z,60269.85
2018-07-15T21:49:05.338Z,60274.93
2018-07-15T21:51:34.723Z,60268.83
2018-07-15T21:54:02.927Z,60286.11
2018-07-15T21:56:31.104Z,60267.82
2018-07-15T21:58:59.271Z,60269.85
2018-07-15T22:01:36.758Z,60283.06
2018-07-15T22:04:05.239Z,60284.07
2018-07-15T22:07:47.283Z,60271.88
2018-07-15T22:10:20.778Z,60276.96
2018-07-15T22:12:48.938Z,60283.06
2018-07-15T22:15:18.832Z,60280.01
2018-07-15T22:17:46.998Z,60267.82
2018-07-15T22:20:15.158Z,60273.91
2018-07-15T22:22:43.311Z,60273.91
2018-07-15T22:25:11.499Z,60275.95
2018-07-15T22:27:39.658Z,60285.09
2018-07-15T22:30:07.834Z,60273.91
2018-07-15T22:32:35.998Z,60284.07
2018-07-15T22:35:04.183Z,60277.98
2018-07-15T22:37:32.346Z,60282.04
2018-07-15T22:40:00.515Z,60301.35
2018-07-15T22:42:28.679Z,60272.90
2018-07-15T22:44:56.836Z,60294.24
2018-07-15T22:47:25.196Z,60291.19
2018-07-15T22:49:53.359Z,60261.72
2018-07-15T22:52:21.534Z,60268.83
2018-07-15T22:54:49.707Z,60291.19
2018-07-15T22:57:17.882Z,60290.17
2018-07-15T22:59:46.048Z,60268.83
2018-07-15T23:02:14.219Z,60260.71
2018-07-15T23:05:52.871Z,60284.07
2018-07-15T23:08:21.664Z,60293.22
2018-07-15T23:10:49.847Z,60297.29
2018-07-15T23:13:18.415Z,60289.16
2018-07-15T23:15:46.898Z,60280.01
2018-07-15T23:18:15.063Z,60292.21
2018-07-15T23:20:43.918Z,60292.21
2018-07-15T23:23:12.538Z,60289.16
2018-07-15T23:25:40.748Z,60300.34
2018-07-15T23:28:09.828Z,60297.29
2018-07-15T23:30:38.810Z,60290.17
2018-07-15T23:33:07.491Z,60286.11
2018-07-15T23:35:35.684Z,60295.25
2018-07-15T23:38:03.907Z,60281.03
2018-07-15T23:40:32.234Z,60265.79
2018-07-15T23:43:00.935Z,60300.34
2018-07-15T23:45:30.066Z,60292.21
2018-07-15T23:47:58.265Z,60272.90
2018-07-15T23:50:26.556Z,60316.59
2018-07-15T23:52:54.938Z,60294.24
2018-07-15T23:55:23.419Z,60286.11
2018-07-15T23:57:51.694Z,60292.21
